sensor_id;sensor_type;location;lat;lon;timestamp;P1;durP1;ratioP1;P2;durP2;ratioP2
14907;SDS011;7545;52.092;7.006;2022-12-01T00:00:18;50.87;;;20.83;;
14907;SDS011;7545;52.092;7.006;2022-12-01T00:02:44;50.20;;;21.40;;
14907;SDS011;7545;52.092;7.006;2022-12-01T00:05:09;57.30;;;22.63;;
14907;SDS011;7545;52.092;7.006;2022-12-01T00:07:35;54.73;;;22.17;;
14907;SDS011;7545;52.092;7.006;2022-12-01T00:10:01;57.47;;;21.70;;
14907;SDS011;7545;52.092;7.006;2022-12-01T00:12:45;59.10;;;23.47;;
14907;SDS011;7545;52.092;7.006;2022-12-01T00:15:10;68.27;;;22.83;;
14907;SDS011;7545;52.092;7.006;2022-12-01T00:17:36;60.53;;;22.57;;
14907;SDS011;7545;52.092;7.006;2022-12-01T00:20:03;56.53;;;21.47;;
14907;SDS011;7545;52.092;7.006;2022-12-01T00:22:29;51.30;;;21.97;;
14907;SDS011;7545;52.092;7.006;2022-12-01T00:24:55;60.87;;;24.03;;
14907;SDS011;7545;52.092;7.006;2022-12-01T00:27:21;57.63;;;24.17;;
14907;SDS011;7545;52.092;7.006;2022-12-01T00:29:46;59.70;;;23.67;;
14907;SDS011;7545;52.092;7.006;2022-12-01T00:32:12;54.07;;;22.23;;
14907;SDS011;7545;52.092;7.006;2022-12-01T00:34:38;64.33;;;23.57;;
14907;SDS011;7545;52.092;7.006;2022-12-01T00:37:04;65.03;;;24.03;;
14907;SDS011;7545;52.092;7.006;2022-12-01T00:39:29;68.10;;;26.20;;
14907;SDS011;7545;52.092;7.006;2022-12-01T00:41:55;61.67;;;23.03;;
14907;SDS011;7545;52.092;7.006;2022-12-01T00:44:20;56.63;;;23.30;;
14907;SDS011;7545;52.092;7.006;2022-12-01T00:46:46;56.93;;;24.00;;
14907;SDS011;7545;52.092;7.006;2022-12-01T00:49:12;65.50;;;25.13;;
14907;SDS011;7545;52.092;7.006;2022-12-01T00:51:38;57.97;;;22.90;;
14907;SDS011;7545;52.092;7.006;2022-12-01T00:54:04;56.27;;;23.03;;
14907;SDS011;7545;52.092;7.006;2022-12-01T00:56:29;52.23;;;21.87;;
14907;SDS011;7545;52.092;7.006;2022-12-01T00:58:55;58.00;;;23.07;;
14907;SDS011;7545;52.092;7.006;2022-12-01T01:01:21;62.33;;;24.27;;
14907;SDS011;7545;52.092;7.006;2022-12-01T01:03:47;48.37;;;24.20;;
14907;SDS011;7545;52.092;7.006;2022-12-01T01:06:13;57.80;;;20.70;;
14907;SDS011;7545;52.092;7.006;2022-12-01T01:08:38;56.33;;;21.90;;
14907;SDS011;7545;52.092;7.006;2022-12-01T01:11:05;50.83;;;21.00;;
14907;SDS011;7545;52.092;7.006;2022-12-01T01:13:31;45.07;;;19.40;;
14907;SDS011;7545;52.092;7.006;2022-12-01T01:16:04;48.93;;;21.03;;
14907;SDS011;7545;52.092;7.006;2022-12-01T01:18:32;50.87;;;20.93;;
14907;SDS011;7545;52.092;7.006;2022-12-01T01:21:02;47.43;;;18.87;;
14907;SDS011;7545;52.092;7.006;2022-12-01T01:23:30;54.23;;;20.53;;
14907;SDS011;7545;52.092;7.006;2022-12-01T01:26:03;48.00;;;20.37;;
14907;SDS011;7545;52.092;7.006;2022-12-01T01:28:31;56.97;;;22.57;;
14907;SDS011;7545;52.092;7.006;2022-12-01T01:30:57;53.13;;;22.97;;
14907;SDS011;7545;52.092;7.006;2022-12-01T01:33:23;55.60;;;20.10;;
14907;SDS011;7545;52.092;7.006;2022-12-01T01:35:49;47.43;;;20.63;;
14907;SDS011;7545;52.092;7.006;2022-12-01T01:38:14;55.70;;;21.17;;
14907;SDS011;7545;52.092;7.006;2022-12-01T01:40:44;50.83;;;21.67;;
14907;SDS011;7545;52.092;7.006;2022-12-01T01:43:14;50.67;;;20.00;;
14907;SDS011;7545;52.092;7.006;2022-12-01T01:45:41;49.80;;;20.00;;
14907;SDS011;7545;52.092;7.006;2022-12-01T01:48:07;50.97;;;19.77;;
14907;SDS011;7545;52.092;7.006;2022-12-01T01:50:37;47.53;;;20.07;;
14907;SDS011;7545;52.092;7.006;2022-12-01T01:53:09;54.67;;;20.50;;
14907;SDS011;7545;52.092;7.006;2022-12-01T01:55:38;54.87;;;20.67;;
14907;SDS011;7545;52.092;7.006;2022-12-01T01:58:05;60.83;;;21.57;;
14907;SDS011;7545;52.092;7.006;2022-12-01T02:00:33;57.03;;;21.53;;
14907;SDS011;7545;52.092;7.006;2022-12-01T02:02:59;60.40;;;22.37;;
14907;SDS011;7545;52.092;7.006;2022-12-01T02:05:27;57.20;;;21.37;;
14907;SDS011;7545;52.092;7.006;2022-12-01T02:07:56;56.53;;;19.90;;
14907;SDS011;7545;52.092;7.006;2022-12-01T02:16:17;58.20;;;21.53;;
14907;SDS011;7545;52.092;7.006;2022-12-01T02:21:26;51.57;;;20.00;;
14907;SDS011;7545;52.092;7.006;2022-12-01T02:34:42;49.13;;;19.93;;
14907;SDS011;7545;52.092;7.006;2022-12-01T02:40:13;52.93;;;20.03;;
14907;SDS011;7545;52.092;7.006;2022-12-01T02:48:23;46.60;;;19.77;;
14907;SDS011;7545;52.092;7.006;2022-12-01T02:51:40;45.97;;;17.57;;
14907;SDS011;7545;52.092;7.006;2022-12-01T02:53:48;47.03;;;19.13;;
14907;SDS011;7545;52.092;7.006;2022-12-01T02:56:19;43.80;;;18.53;;
14907;SDS011;7545;52.092;7.006;2022-12-01T02:58:45;48.50;;;18.00;;
14907;SDS011;7545;52.092;7.006;2022-12-01T03:09:06;41.63;;;16.07;;
14907;SDS011;7545;52.092;7.006;2022-12-01T03:11:50;42.97;;;17.83;;
14907;SDS011;7545;52.092;7.006;2022-12-01T03:14:24;43.60;;;18.03;;
14907;SDS011;7545;52.092;7.006;2022-12-01T03:17:15;46.73;;;17.90;;
14907;SDS011;7545;52.092;7.006;2022-12-01T03:19:49;45.07;;;18.47;;
14907;SDS011;7545;52.092;7.006;2022-12-01T03:22:34;41.57;;;18.10;;
14907;SDS011;7545;52.092;7.006;2022-12-01T03:25:03;44.50;;;18.43;;
14907;SDS011;7545;52.092;7.006;2022-12-01T03:27:32;45.80;;;19.57;;
14907;SDS011;7545;52.092;7.006;2022-12-01T03:30:02;42.30;;;19.33;;
14907;SDS011;7545;52.092;7.006;2022-12-01T03:32:39;41.50;;;18.13;;
14907;SDS011;7545;52.092;7.006;2022-12-01T03:35:25;44.87;;;18.20;;
14907;SDS011;7545;52.092;7.006;2022-12-01T03:38:07;46.77;;;18.53;;
14907;SDS011;7545;52.092;7.006;2022-12-01T03:40:41;47.20;;;19.40;;
14907;SDS011;7545;52.092;7.006;2022-12-01T03:43:10;41.50;;;20.57;;
14907;SDS011;7545;52.092;7.006;2022-12-01T03:48:17;45.83;;;18.43;;
14907;SDS011;7545;52.092;7.006;2022-12-01T03:53:22;44.97;;;19.87;;
14907;SDS011;7545;52.092;7.006;2022-12-01T03:55:53;46.47;;;21.07;;
14907;SDS011;7545;52.092;7.006;2022-12-01T03:58:23;43.20;;;18.77;;
14907;SDS011;7545;52.092;7.006;2022-12-01T04:00:54;43.40;;;19.57;;
14907;SDS011;7545;52.092;7.006;2022-12-01T04:03:24;51.73;;;20.23;;
14907;SDS011;7545;52.092;7.006;2022-12-01T04:05:50;47.40;;;20.20;;
14907;SDS011;7545;52.092;7.006;2022-12-01T04:08:16;41.90;;;19.57;;
14907;SDS011;7545;52.092;7.006;2022-12-01T04:10:42;48.53;;;20.23;;
14907;SDS011;7545;52.092;7.006;2022-12-01T04:13:08;48.63;;;20.23;;
14907;SDS011;7545;52.092;7.006;2022-12-01T04:15:41;48.93;;;21.03;;
14907;SDS011;7545;52.092;7.006;2022-12-01T04:18:07;41.73;;;21.43;;
14907;SDS011;7545;52.092;7.006;2022-12-01T04:20:32;49.37;;;21.90;;
14907;SDS011;7545;52.092;7.006;2022-12-01T04:22:58;57.20;;;22.30;;
14907;SDS011;7545;52.092;7.006;2022-12-01T04:25:24;54.70;;;22.33;;
14907;SDS011;7545;52.092;7.006;2022-12-01T04:27:49;48.70;;;22.00;;
14907;SDS011;7545;52.092;7.006;2022-12-01T04:30:15;51.30;;;25.23;;
14907;SDS011;7545;52.092;7.006;2022-12-01T04:32:41;49.80;;;22.47;;
14907;SDS011;7545;52.092;7.006;2022-12-01T04:35:08;48.73;;;22.20;;
14907;SDS011;7545;52.092;7.006;2022-12-01T04:37:35;56.73;;;24.37;;
14907;SDS011;7545;52.092;7.006;2022-12-01T04:40:01;53.43;;;23.20;;
14907;SDS011;7545;52.092;7.006;2022-12-01T04:42:27;48.40;;;23.07;;
14907;SDS011;7545;52.092;7.006;2022-12-01T04:44:53;51.90;;;21.73;;
14907;SDS011;7545;52.092;7.006;2022-12-01T04:47:19;47.23;;;22.27;;
14907;SDS011;7545;52.092;7.006;2022-12-01T04:49:44;50.70;;;23.57;;
14907;SDS011;7545;52.092;7.006;2022-12-01T04:52:10;46.30;;;21.80;;
14907;SDS011;7545;52.092;7.006;2022-12-01T04:54:35;49.43;;;22.27;;
14907;SDS011;7545;52.092;7.006;2022-12-01T04:57:01;45.53;;;22.13;;
14907;SDS011;7545;52.092;7.006;2022-12-01T04:59:27;45.53;;;23.57;;
14907;SDS011;7545;52.092;7.006;2022-12-01T05:01:52;47.77;;;23.60;;
14907;SDS011;7545;52.092;7.006;2022-12-01T05:04:18;38.70;;;20.97;;
14907;SDS011;7545;52.092;7.006;2022-12-01T05:06:43;46.40;;;22.53;;
14907;SDS011;7545;52.092;7.006;2022-12-01T05:09:11;47.70;;;22.53;;
14907;SDS011;7545;52.092;7.006;2022-12-01T05:11:38;42.50;;;20.60;;
14907;SDS011;7545;52.092;7.006;2022-12-01T05:14:04;43.10;;;19.80;;
14907;SDS011;7545;52.092;7.006;2022-12-01T05:16:30;46.20;;;21.63;;
14907;SDS011;7545;52.092;7.006;2022-12-01T05:18:58;44.70;;;21.87;;
14907;SDS011;7545;52.092;7.006;2022-12-01T05:21:44;42.60;;;21.67;;
14907;SDS011;7545;52.092;7.006;2022-12-01T05:24:12;44.27;;;21.07;;
14907;SDS011;7545;52.092;7.006;2022-12-01T05:26:38;38.77;;;19.77;;
14907;SDS011;7545;52.092;7.006;2022-12-01T05:29:05;39.63;;;20.03;;
14907;SDS011;7545;52.092;7.006;2022-12-01T05:31:31;36.57;;;19.87;;
14907;SDS011;7545;52.092;7.006;2022-12-01T05:33:57;38.27;;;19.67;;
14907;SDS011;7545;52.092;7.006;2022-12-01T05:36:22;38.77;;;20.23;;
14907;SDS011;7545;52.092;7.006;2022-12-01T05:38:48;40.63;;;21.70;;
14907;SDS011;7545;52.092;7.006;2022-12-01T05:41:14;33.40;;;19.33;;
14907;SDS011;7545;52.092;7.006;2022-12-01T05:43:40;37.07;;;18.97;;
14907;SDS011;7545;52.092;7.006;2022-12-01T05:46:06;35.23;;;18.60;;
14907;SDS011;7545;52.092;7.006;2022-12-01T05:48:32;36.70;;;21.20;;
14907;SDS011;7545;52.092;7.006;2022-12-01T05:50:57;33.43;;;18.87;;
14907;SDS011;7545;52.092;7.006;2022-12-01T05:53:23;32.67;;;17.23;;
14907;SDS011;7545;52.092;7.006;2022-12-01T05:55:52;36.30;;;19.83;;
14907;SDS011;7545;52.092;7.006;2022-12-01T05:58:18;31.37;;;16.53;;
14907;SDS011;7545;52.092;7.006;2022-12-01T06:00:44;34.60;;;18.00;;
14907;SDS011;7545;52.092;7.006;2022-12-01T06:03:10;37.13;;;17.57;;
14907;SDS011;7545;52.092;7.006;2022-12-01T06:05:35;37.57;;;18.37;;
14907;SDS011;7545;52.092;7.006;2022-12-01T06:08:01;42.30;;;18.80;;
14907;SDS011;7545;52.092;7.006;2022-12-01T06:10:26;36.43;;;18.13;;
14907;SDS011;7545;52.092;7.006;2022-12-01T06:12:52;31.83;;;17.40;;
14907;SDS011;7545;52.092;7.006;2022-12-01T06:15:17;35.93;;;17.40;;
14907;SDS011;7545;52.092;7.006;2022-12-01T06:17:43;38.37;;;17.57;;
14907;SDS011;7545;52.092;7.006;2022-12-01T06:20:09;33.03;;;17.17;;
14907;SDS011;7545;52.092;7.006;2022-12-01T06:22:35;35.57;;;18.50;;
14907;SDS011;7545;52.092;7.006;2022-12-01T06:25:01;33.43;;;17.47;;
14907;SDS011;7545;52.092;7.006;2022-12-01T06:27:27;39.63;;;20.47;;
14907;SDS011;7545;52.092;7.006;2022-12-01T06:29:52;38.73;;;21.93;;
14907;SDS011;7545;52.092;7.006;2022-12-01T06:32:18;42.60;;;20.13;;
14907;SDS011;7545;52.092;7.006;2022-12-01T06:34:43;36.73;;;19.47;;
14907;SDS011;7545;52.092;7.006;2022-12-01T06:37:09;36.67;;;19.17;;
14907;SDS011;7545;52.092;7.006;2022-12-01T06:39:36;33.80;;;18.20;;
14907;SDS011;7545;52.092;7.006;2022-12-01T06:42:01;37.90;;;18.23;;
14907;SDS011;7545;52.092;7.006;2022-12-01T06:44:27;36.73;;;19.43;;
14907;SDS011;7545;52.092;7.006;2022-12-01T06:46:53;34.53;;;17.43;;
14907;SDS011;7545;52.092;7.006;2022-12-01T06:49:20;37.33;;;18.80;;
14907;SDS011;7545;52.092;7.006;2022-12-01T06:51:46;43.30;;;19.80;;
14907;SDS011;7545;52.092;7.006;2022-12-01T06:54:11;40.13;;;18.10;;
14907;SDS011;7545;52.092;7.006;2022-12-01T06:56:38;40.33;;;18.87;;
14907;SDS011;7545;52.092;7.006;2022-12-01T06:59:04;35.63;;;17.63;;
14907;SDS011;7545;52.092;7.006;2022-12-01T07:01:30;39.17;;;19.07;;
14907;SDS011;7545;52.092;7.006;2022-12-01T07:03:55;41.67;;;20.53;;
14907;SDS011;7545;52.092;7.006;2022-12-01T07:06:21;37.33;;;19.70;;
14907;SDS011;7545;52.092;7.006;2022-12-01T07:08:47;33.80;;;18.33;;
14907;SDS011;7545;52.092;7.006;2022-12-01T07:11:14;43.33;;;20.47;;
14907;SDS011;7545;52.092;7.006;2022-12-01T07:13:41;39.90;;;18.73;;
14907;SDS011;7545;52.092;7.006;2022-12-01T07:16:09;38.00;;;18.03;;
14907;SDS011;7545;52.092;7.006;2022-12-01T07:18:36;42.93;;;19.93;;
14907;SDS011;7545;52.092;7.006;2022-12-01T07:21:03;41.40;;;19.23;;
14907;SDS011;7545;52.092;7.006;2022-12-01T07:23:34;39.27;;;19.37;;
14907;SDS011;7545;52.092;7.006;2022-12-01T07:26:02;40.63;;;19.43;;
14907;SDS011;7545;52.092;7.006;2022-12-01T07:28:30;41.93;;;20.17;;
14907;SDS011;7545;52.092;7.006;2022-12-01T07:31:07;34.53;;;18.10;;
14907;SDS011;7545;52.092;7.006;2022-12-01T07:33:40;35.93;;;17.43;;
14907;SDS011;7545;52.092;7.006;2022-12-01T07:36:06;32.53;;;18.50;;
14907;SDS011;7545;52.092;7.006;2022-12-01T07:38:32;37.27;;;17.97;;
14907;SDS011;7545;52.092;7.006;2022-12-01T07:41:05;41.63;;;19.00;;
14907;SDS011;7545;52.092;7.006;2022-12-01T07:43:34;42.90;;;19.67;;
14907;SDS011;7545;52.092;7.006;2022-12-01T07:46:42;37.53;;;19.20;;
14907;SDS011;7545;52.092;7.006;2022-12-01T07:48:49;39.80;;;19.07;;
14907;SDS011;7545;52.092;7.006;2022-12-01T07:51:16;38.10;;;17.80;;
14907;SDS011;7545;52.092;7.006;2022-12-01T07:53:45;33.63;;;18.10;;
14907;SDS011;7545;52.092;7.006;2022-12-01T07:56:12;38.60;;;18.93;;
14907;SDS011;7545;52.092;7.006;2022-12-01T07:58:38;36.90;;;19.87;;
14907;SDS011;7545;52.092;7.006;2022-12-01T08:01:14;34.90;;;17.70;;
14907;SDS011;7545;52.092;7.006;2022-12-01T08:03:41;40.00;;;18.80;;
14907;SDS011;7545;52.092;7.006;2022-12-01T08:06:07;37.50;;;18.33;;
14907;SDS011;7545;52.092;7.006;2022-12-01T08:08:33;37.03;;;19.13;;
14907;SDS011;7545;52.092;7.006;2022-12-01T08:11:01;36.00;;;18.20;;
14907;SDS011;7545;52.092;7.006;2022-12-01T08:13:31;37.97;;;18.83;;
14907;SDS011;7545;52.092;7.006;2022-12-01T08:15:57;34.03;;;18.67;;
14907;SDS011;7545;52.092;7.006;2022-12-01T08:18:26;37.90;;;18.33;;
14907;SDS011;7545;52.092;7.006;2022-12-01T08:20:54;34.00;;;18.13;;
14907;SDS011;7545;52.092;7.006;2022-12-01T08:23:22;41.80;;;19.03;;
14907;SDS011;7545;52.092;7.006;2022-12-01T08:25:48;35.67;;;18.17;;
14907;SDS011;7545;52.092;7.006;2022-12-01T08:28:13;36.70;;;18.67;;
14907;SDS011;7545;52.092;7.006;2022-12-01T08:30:39;37.20;;;17.50;;
14907;SDS011;7545;52.092;7.006;2022-12-01T08:33:04;38.63;;;19.70;;
14907;SDS011;7545;52.092;7.006;2022-12-01T08:35:30;37.20;;;19.13;;
14907;SDS011;7545;52.092;7.006;2022-12-01T08:37:59;37.30;;;18.57;;
14907;SDS011;7545;52.092;7.006;2022-12-01T08:40:25;35.13;;;18.07;;
14907;SDS011;7545;52.092;7.006;2022-12-01T08:42:50;39.40;;;19.83;;
14907;SDS011;7545;52.092;7.006;2022-12-01T08:45:16;40.77;;;18.73;;
14907;SDS011;7545;52.092;7.006;2022-12-01T08:47:42;32.67;;;17.23;;
14907;SDS011;7545;52.092;7.006;2022-12-01T08:50:08;36.70;;;16.73;;
14907;SDS011;7545;52.092;7.006;2022-12-01T08:52:35;32.77;;;18.33;;
14907;SDS011;7545;52.092;7.006;2022-12-01T08:55:00;36.17;;;18.77;;
14907;SDS011;7545;52.092;7.006;2022-12-01T08:57:30;31.90;;;17.20;;
14907;SDS011;7545;52.092;7.006;2022-12-01T08:59:56;31.63;;;17.17;;
14907;SDS011;7545;52.092;7.006;2022-12-01T09:02:21;32.90;;;16.23;;
14907;SDS011;7545;52.092;7.006;2022-12-01T09:04:48;27.70;;;16.17;;
14907;SDS011;7545;52.092;7.006;2022-12-01T09:07:14;25.83;;;15.63;;
14907;SDS011;7545;52.092;7.006;2022-12-01T09:09:42;31.40;;;17.20;;
14907;SDS011;7545;52.092;7.006;2022-12-01T09:12:09;24.37;;;13.73;;
14907;SDS011;7545;52.092;7.006;2022-12-01T09:14:38;28.83;;;15.83;;
14907;SDS011;7545;52.092;7.006;2022-12-01T09:17:06;30.00;;;14.90;;
14907;SDS011;7545;52.092;7.006;2022-12-01T09:19:32;27.20;;;16.13;;
14907;SDS011;7545;52.092;7.006;2022-12-01T09:21:59;29.53;;;17.03;;
14907;SDS011;7545;52.092;7.006;2022-12-01T09:24:25;30.40;;;16.43;;
14907;SDS011;7545;52.092;7.006;2022-12-01T09:26:54;29.10;;;16.23;;
14907;SDS011;7545;52.092;7.006;2022-12-01T09:29:21;27.93;;;15.60;;
14907;SDS011;7545;52.092;7.006;2022-12-01T09:31:46;28.93;;;15.07;;
14907;SDS011;7545;52.092;7.006;2022-12-01T09:34:13;32.80;;;18.80;;
14907;SDS011;7545;52.092;7.006;2022-12-01T09:36:45;33.03;;;16.97;;
14907;SDS011;7545;52.092;7.006;2022-12-01T09:39:12;33.37;;;16.77;;
14907;SDS011;7545;52.092;7.006;2022-12-01T09:41:46;33.50;;;16.60;;
14907;SDS011;7545;52.092;7.006;2022-12-01T09:49:20;32.07;;;15.63;;
14907;SDS011;7545;52.092;7.006;2022-12-01T09:51:52;29.97;;;16.13;;
14907;SDS011;7545;52.092;7.006;2022-12-01T09:54:19;31.50;;;16.13;;
14907;SDS011;7545;52.092;7.006;2022-12-01T09:56:46;28.10;;;15.50;;
14907;SDS011;7545;52.092;7.006;2022-12-01T09:59:18;30.20;;;16.93;;
14907;SDS011;7545;52.092;7.006;2022-12-01T10:01:48;29.60;;;14.27;;
14907;SDS011;7545;52.092;7.006;2022-12-01T10:04:26;30.27;;;15.77;;
14907;SDS011;7545;52.092;7.006;2022-12-01T10:12:13;28.77;;;16.37;;
14907;SDS011;7545;52.092;7.006;2022-12-01T10:14:42;30.57;;;16.67;;
14907;SDS011;7545;52.092;7.006;2022-12-01T10:19:38;28.90;;;14.67;;
14907;SDS011;7545;52.092;7.006;2022-12-01T10:25:10;30.60;;;14.23;;
14907;SDS011;7545;52.092;7.006;2022-12-01T10:30:48;24.53;;;14.47;;
14907;SDS011;7545;52.092;7.006;2022-12-01T10:33:24;23.70;;;13.77;;
14907;SDS011;7545;52.092;7.006;2022-12-01T10:35:51;32.43;;;14.43;;
14907;SDS011;7545;52.092;7.006;2022-12-01T10:38:27;34.80;;;16.37;;
14907;SDS011;7545;52.092;7.006;2022-12-01T10:40:58;29.17;;;13.53;;
14907;SDS011;7545;52.092;7.006;2022-12-01T10:43:28;28.83;;;15.33;;
14907;SDS011;7545;52.092;7.006;2022-12-01T10:46:02;28.53;;;14.33;;
14907;SDS011;7545;52.092;7.006;2022-12-01T10:48:50;25.83;;;13.53;;
14907;SDS011;7545;52.092;7.006;2022-12-01T10:51:32;30.53;;;15.37;;
14907;SDS011;7545;52.092;7.006;2022-12-01T10:54:11;31.43;;;15.13;;
14907;SDS011;7545;52.092;7.006;2022-12-01T10:56:38;31.47;;;15.47;;
14907;SDS011;7545;52.092;7.006;2022-12-01T10:59:15;32.90;;;16.33;;
14907;SDS011;7545;52.092;7.006;2022-12-01T11:02:04;36.07;;;16.60;;
14907;SDS011;7545;52.092;7.006;2022-12-01T11:04:50;30.10;;;16.10;;
14907;SDS011;7545;52.092;7.006;2022-12-01T11:07:26;27.90;;;14.20;;
14907;SDS011;7545;52.092;7.006;2022-12-01T11:12:28;31.13;;;16.37;;
14907;SDS011;7545;52.092;7.006;2022-12-01T11:14:55;29.30;;;13.97;;
14907;SDS011;7545;52.092;7.006;2022-12-01T11:17:32;29.57;;;14.60;;
14907;SDS011;7545;52.092;7.006;2022-12-01T11:22:45;31.87;;;14.90;;
14907;SDS011;7545;52.092;7.006;2022-12-01T11:25:17;34.63;;;16.23;;
14907;SDS011;7545;52.092;7.006;2022-12-01T11:27:51;32.50;;;14.43;;
14907;SDS011;7545;52.092;7.006;2022-12-01T11:32:52;34.20;;;15.33;;
14907;SDS011;7545;52.092;7.006;2022-12-01T11:35:24;30.00;;;16.53;;
14907;SDS011;7545;52.092;7.006;2022-12-01T11:37:53;34.30;;;16.83;;
14907;SDS011;7545;52.092;7.006;2022-12-01T11:40:22;35.43;;;16.83;;
14907;SDS011;7545;52.092;7.006;2022-12-01T11:42:51;36.43;;;17.87;;
14907;SDS011;7545;52.092;7.006;2022-12-01T11:50:36;37.87;;;17.63;;
14907;SDS011;7545;52.092;7.006;2022-12-01T11:53:25;35.97;;;17.57;;
14907;SDS011;7545;52.092;7.006;2022-12-01T11:55:56;33.83;;;16.70;;
14907;SDS011;7545;52.092;7.006;2022-12-01T11:58:48;40.00;;;18.53;;
14907;SDS011;7545;52.092;7.006;2022-12-01T12:04:03;42.27;;;18.70;;
14907;SDS011;7545;52.092;7.006;2022-12-01T12:09:56;40.33;;;17.13;;
14907;SDS011;7545;52.092;7.006;2022-12-01T12:21:01;43.77;;;18.70;;
14907;SDS011;7545;52.092;7.006;2022-12-01T12:26:25;42.97;;;19.53;;
14907;SDS011;7545;52.092;7.006;2022-12-01T12:31:44;42.97;;;21.57;;
14907;SDS011;7545;52.092;7.006;2022-12-01T12:34:47;45.90;;;22.27;;
14907;SDS011;7545;52.092;7.006;2022-12-01T12:37:24;43.07;;;19.93;;
14907;SDS011;7545;52.092;7.006;2022-12-01T12:53:53;47.83;;;22.73;;
14907;SDS011;7545;52.092;7.006;2022-12-01T12:56:23;49.33;;;23.53;;
14907;SDS011;7545;52.092;7.006;2022-12-01T12:58:56;50.83;;;25.67;;
14907;SDS011;7545;52.092;7.006;2022-12-01T13:01:33;47.70;;;23.13;;
14907;SDS011;7545;52.092;7.006;2022-12-01T13:04:22;52.53;;;25.07;;
14907;SDS011;7545;52.092;7.006;2022-12-01T13:09:50;48.93;;;22.90;;
14907;SDS011;7545;52.092;7.006;2022-12-01T13:12:31;46.80;;;22.70;;
14907;SDS011;7545;52.092;7.006;2022-12-01T13:15:17;43.10;;;22.37;;
14907;SDS011;7545;52.092;7.006;2022-12-01T13:17:55;42.80;;;22.33;;
14907;SDS011;7545;52.092;7.006;2022-12-01T13:20:33;45.93;;;22.60;;
14907;SDS011;7545;52.092;7.006;2022-12-01T13:23:01;50.57;;;23.97;;
14907;SDS011;7545;52.092;7.006;2022-12-01T13:25:29;50.43;;;24.97;;
14907;SDS011;7545;52.092;7.006;2022-12-01T13:27:59;47.53;;;24.23;;
14907;SDS011;7545;52.092;7.006;2022-12-01T13:30:27;44.43;;;25.60;;
14907;SDS011;7545;52.092;7.006;2022-12-01T13:33:00;49.50;;;25.87;;
14907;SDS011;7545;52.092;7.006;2022-12-01T13:35:31;50.43;;;25.03;;
14907;SDS011;7545;52.092;7.006;2022-12-01T13:41:11;51.70;;;24.47;;
14907;SDS011;7545;52.092;7.006;2022-12-01T13:46:21;48.47;;;23.67;;
14907;SDS011;7545;52.092;7.006;2022-12-01T13:48:54;46.57;;;23.20;;
14907;SDS011;7545;52.092;7.006;2022-12-01T13:51:22;44.63;;;24.83;;
14907;SDS011;7545;52.092;7.006;2022-12-01T13:53:56;47.30;;;28.50;;
14907;SDS011;7545;52.092;7.006;2022-12-01T13:59:36;51.80;;;25.10;;
14907;SDS011;7545;52.092;7.006;2022-12-01T14:02:13;45.57;;;24.27;;
14907;SDS011;7545;52.092;7.006;2022-12-01T14:04:44;45.93;;;22.43;;
14907;SDS011;7545;52.092;7.006;2022-12-01T14:07:20;54.93;;;26.73;;
14907;SDS011;7545;52.092;7.006;2022-12-01T14:10:04;44.43;;;24.97;;
14907;SDS011;7545;52.092;7.006;2022-12-01T14:12:55;45.30;;;24.13;;
14907;SDS011;7545;52.092;7.006;2022-12-01T14:15:30;46.73;;;26.00;;
14907;SDS011;7545;52.092;7.006;2022-12-01T14:20:45;56.30;;;27.20;;
14907;SDS011;7545;52.092;7.006;2022-12-01T14:23:14;50.97;;;28.77;;
14907;SDS011;7545;52.092;7.006;2022-12-01T14:34:08;57.07;;;28.13;;
14907;SDS011;7545;52.092;7.006;2022-12-01T14:36:46;56.97;;;26.67;;
14907;SDS011;7545;52.092;7.006;2022-12-01T14:39:20;52.30;;;28.07;;
14907;SDS011;7545;52.092;7.006;2022-12-01T14:41:58;51.90;;;27.60;;
14907;SDS011;7545;52.092;7.006;2022-12-01T14:44:43;49.93;;;26.17;;
14907;SDS011;7545;52.092;7.006;2022-12-01T14:47:19;48.67;;;25.70;;
14907;SDS011;7545;52.092;7.006;2022-12-01T14:52:19;50.77;;;28.23;;
14907;SDS011;7545;52.092;7.006;2022-12-01T14:55:04;49.67;;;27.07;;
14907;SDS011;7545;52.092;7.006;2022-12-01T14:57:39;50.00;;;26.80;;
14907;SDS011;7545;52.092;7.006;2022-12-01T15:00:12;56.90;;;27.80;;
14907;SDS011;7545;52.092;7.006;2022-12-01T15:05:16;47.00;;;25.40;;
14907;SDS011;7545;52.092;7.006;2022-12-01T15:07:45;53.57;;;28.80;;
14907;SDS011;7545;52.092;7.006;2022-12-01T15:10:18;56.40;;;27.70;;
14907;SDS011;7545;52.092;7.006;2022-12-01T15:12:49;47.23;;;26.53;;
14907;SDS011;7545;52.092;7.006;2022-12-01T15:17:44;54.37;;;27.70;;
14907;SDS011;7545;52.092;7.006;2022-12-01T15:23:13;54.33;;;25.73;;
14907;SDS011;7545;52.092;7.006;2022-12-01T15:25:41;50.17;;;25.60;;
14907;SDS011;7545;52.092;7.006;2022-12-01T15:28:18;56.20;;;26.87;;
14907;SDS011;7545;52.092;7.006;2022-12-01T15:30:46;50.97;;;25.77;;
14907;SDS011;7545;52.092;7.006;2022-12-01T15:35:43;52.03;;;26.37;;
14907;SDS011;7545;52.092;7.006;2022-12-01T15:38:12;49.60;;;24.97;;
14907;SDS011;7545;52.092;7.006;2022-12-01T15:40:42;50.73;;;25.73;;
14907;SDS011;7545;52.092;7.006;2022-12-01T15:43:31;49.57;;;25.90;;
14907;SDS011;7545;52.092;7.006;2022-12-01T15:46:09;50.53;;;26.13;;
14907;SDS011;7545;52.092;7.006;2022-12-01T15:48:36;50.57;;;25.87;;
14907;SDS011;7545;52.092;7.006;2022-12-01T15:51:04;50.67;;;26.83;;
14907;SDS011;7545;52.092;7.006;2022-12-01T15:53:33;49.10;;;25.77;;
14907;SDS011;7545;52.092;7.006;2022-12-01T15:56:03;51.73;;;26.90;;
14907;SDS011;7545;52.092;7.006;2022-12-01T15:58:41;52.73;;;31.33;;
14907;SDS011;7545;52.092;7.006;2022-12-01T16:01:11;55.87;;;30.37;;
14907;SDS011;7545;52.092;7.006;2022-12-01T16:06:14;49.30;;;25.53;;
14907;SDS011;7545;52.092;7.006;2022-12-01T16:08:40;45.50;;;24.07;;
14907;SDS011;7545;52.092;7.006;2022-12-01T16:11:16;44.47;;;24.70;;
14907;SDS011;7545;52.092;7.006;2022-12-01T16:16:46;48.87;;;24.73;;
14907;SDS011;7545;52.092;7.006;2022-12-01T16:21:41;44.10;;;25.37;;
14907;SDS011;7545;52.092;7.006;2022-12-01T16:24:13;47.40;;;24.63;;
14907;SDS011;7545;52.092;7.006;2022-12-01T16:29:19;46.47;;;25.97;;
14907;SDS011;7545;52.092;7.006;2022-12-01T16:31:47;48.33;;;24.57;;
14907;SDS011;7545;52.092;7.006;2022-12-01T16:34:15;47.00;;;24.27;;
14907;SDS011;7545;52.092;7.006;2022-12-01T16:36:42;46.63;;;25.03;;
14907;SDS011;7545;52.092;7.006;2022-12-01T16:39:07;49.13;;;24.50;;
14907;SDS011;7545;52.092;7.006;2022-12-01T16:41:33;44.33;;;24.23;;
14907;SDS011;7545;52.092;7.006;2022-12-01T16:44:02;45.43;;;24.87;;
14907;SDS011;7545;52.092;7.006;2022-12-01T16:46:28;40.80;;;22.67;;
14907;SDS011;7545;52.092;7.006;2022-12-01T16:48:53;49.80;;;25.20;;
14907;SDS011;7545;52.092;7.006;2022-12-01T16:51:19;41.87;;;22.03;;
14907;SDS011;7545;52.092;7.006;2022-12-01T16:53:45;47.27;;;25.73;;
14907;SDS011;7545;52.092;7.006;2022-12-01T16:56:13;42.57;;;22.53;;
14907;SDS011;7545;52.092;7.006;2022-12-01T16:58:39;43.83;;;23.50;;
14907;SDS011;7545;52.092;7.006;2022-12-01T17:01:05;42.80;;;23.67;;
14907;SDS011;7545;52.092;7.006;2022-12-01T17:03:31;43.60;;;24.17;;
14907;SDS011;7545;52.092;7.006;2022-12-01T17:05:58;47.90;;;24.03;;
14907;SDS011;7545;52.092;7.006;2022-12-01T17:08:24;47.40;;;25.47;;
14907;SDS011;7545;52.092;7.006;2022-12-01T17:10:50;46.30;;;23.93;;
14907;SDS011;7545;52.092;7.006;2022-12-01T17:13:17;49.67;;;25.03;;
14907;SDS011;7545;52.092;7.006;2022-12-01T17:15:44;46.20;;;24.43;;
14907;SDS011;7545;52.092;7.006;2022-12-01T17:18:11;49.63;;;23.87;;
14907;SDS011;7545;52.092;7.006;2022-12-01T17:20:37;48.50;;;24.47;;